This is the latest recevied weather packets stored in our database for station/object DO1BDB-12. If no packets are shown the sender has not sent any weather packets the latest 10 day(s).
| Time | Temp. | Humidity | Pressure | Rain* | Wind** | Luminosity | Snow |
|---|---|---|---|---|---|---|---|
| 1788165603 | 22.78° C | 66% | 101 hPa | - | - | - | - |
| 1788165537 | 22.78° C | 66% | 101 hPa | - | - | - | - |
| 1788165471 | 22.78° C | 67% | 101 hPa | - | - | - | - |
| 1788165406 | 22.78° C | 66% | 101 hPa | - | - | - | - |
| 1788165340 | 22.78° C | 67% | 101 hPa | - | - | - | - |
| 1788165274 | 22.22° C | 67% | 101 hPa | - | - | - | - |
| 1788165208 | 22.22° C | 69% | 101 hPa | - | - | - | - |
| 1788165142 | 22.22° C | 67% | 101 hPa | - | - | - | - |
| 1788165076 | 22.22° C | 69% | 101 hPa | - | - | - | - |
| 1788165011 | 22.78° C | 67% | 101 hPa | - | - | - | - |
| 1788164945 | 22.78° C | 66% | 101 hPa | - | - | - | - |
| 1788164879 | 23.33° C | 66% | 101 hPa | - | - | - | - |
| 1788164813 | 25° C | 61% | 101 hPa | - | - | - | - |
| 1788164747 | 24.44° C | 63% | 101 hPa | - | - | - | - |
| 1788164681 | 22.22° C | 70% | 101 hPa | - | - | - | - |
| 1788164615 | 22.78° C | 67% | 101 hPa | - | - | - | - |
| 1788164560 | 22.78° C | 69% | 101 hPa | - | - | - | - |
| 1788164484 | 22.22° C | 69% | 101 hPa | - | - | - | - |
| 1788164418 | 22.22° C | 70% | 101 hPa | - | - | - | - |
| 1788164352 | 21.67° C | 69% | 101 hPa | - | - | - | - |
| 1788164287 | 22.22° C | 68% | 101 hPa | - | - | - | - |
| 1788164220 | 23.33° C | 66% | 101 hPa | - | - | - | - |
| 1788164155 | 22.78° C | 67% | 101 hPa | - | - | - | - |
| 1788164093 | 22.78° C | 67% | 101 hPa | - | - | - | - |
| 1788164023 | 23.33° C | 66% | 101 hPa | - | - | - | - |
* Rain since midnight (hover to see other rain measurements)
** Current wind speed in m/s (hover to see current wind gust speed)